Time;durP1;ratioP1;P1;durP2;ratioP2;P2;SDS_P1;SDS_P2;PMS_P1;PMS_P2;Temp;Humidity;BMP_temperature;BMP_pressure;BME280_temperature;BME280_humidity;BME280_pressure;Samples;Min_cycle;Max_cycle;Signal;HPM_P1;HPM_P2
2024/03/06 00:00:51;;;;;;;2.80;2.17;;;21.60;57.50;;;;;;5073871;28;20433;-83
2024/03/06 00:03:17;;;;;;;2.53;2.30;;;21.60;57.50;;;;;;5073515;28;20486;-86
2024/03/06 00:05:44;;;;;;;2.80;2.17;;;21.60;57.60;;;;;;5073559;28;20443;-84
2024/03/06 00:08:12;;;;;;;2.87;2.23;;;21.60;57.60;;;;;;5073642;28;20468;-84
2024/03/06 00:10:39;;;;;;;3.07;2.07;;;21.60;57.60;;;;;;5073590;28;20432;-84
2024/03/06 00:13:06;;;;;;;2.80;2.20;;;21.60;57.60;;;;;;5073634;28;20447;-84
2024/03/06 00:15:33;;;;;;;3.20;2.57;;;21.60;57.60;;;;;;5073620;28;20440;-85
2024/03/06 00:18:01;;;;;;;2.80;2.60;;;21.50;57.60;;;;;;5073438;28;20445;-85
2024/03/06 00:20:28;;;;;;;2.63;2.20;;;21.50;57.60;;;;;;5073506;28;20535;-84
2024/03/06 00:22:55;;;;;;;2.30;2.00;;;21.50;57.60;;;;;;5073313;28;20510;-84
2024/03/06 00:25:23;;;;;;;3.00;2.43;;;21.50;57.60;;;;;;5073247;28;20498;-85
2024/03/06 00:27:50;;;;;;;2.80;2.10;;;21.50;57.60;;;;;;5073555;28;20945;-85
2024/03/06 00:30:17;;;;;;;3.00;2.70;;;21.60;57.60;;;;;;5073341;28;20436;-84
2024/03/06 00:32:44;;;;;;;3.20;2.43;;;21.50;57.60;;;;;;5088723;28;20798;-85
2024/03/06 00:35:11;;;;;;;3.47;2.40;;;21.50;57.60;;;;;;5091541;28;20431;-85
2024/03/06 00:37:38;;;;;;;2.17;1.83;;;21.50;57.70;;;;;;5092276;28;20450;-84
2024/03/06 00:40:06;;;;;;;2.60;2.17;;;21.50;57.70;;;;;;5092795;28;20427;-84
2024/03/06 00:42:35;;;;;;;2.73;2.47;;;21.50;57.70;;;;;;5093109;28;20439;-84
2024/03/06 00:45:02;;;;;;;3.13;2.37;;;21.50;57.70;;;;;;5092491;28;20499;-88
2024/03/06 00:47:29;;;;;;;3.57;2.20;;;21.40;57.60;;;;;;5092696;28;20485;-84
2024/03/06 00:49:56;;;;;;;2.80;2.30;;;21.40;57.70;;;;;;5094257;28;20447;-84
2024/03/06 00:52:22;;;;;;;2.70;2.20;;;21.40;57.70;;;;;;5097644;28;20542;-88
2024/03/06 00:54:49;;;;;;;2.10;1.80;;;21.40;57.70;;;;;;5097523;28;20438;-89
2024/03/06 00:57:16;;;;;;;2.90;2.33;;;21.30;57.70;;;;;;5097430;28;20450;-85
2024/03/06 00:59:44;;;;;;;3.00;2.63;;;21.40;57.70;;;;;;5097399;28;20436;-89
2024/03/06 01:02:11;;;;;;;2.57;2.10;;;21.30;57.70;;;;;;5097660;28;20432;-87
2024/03/06 01:04:38;;;;;;;4.03;2.30;;;21.30;57.70;;;;;;5097258;28;20479;-86
2024/03/06 01:07:04;;;;;;;3.37;2.30;;;21.30;57.70;;;;;;5097467;28;20518;-85
2024/03/06 01:09:31;;;;;;;2.30;2.10;;;21.30;57.70;;;;;;5096975;28;20435;-89
2024/03/06 01:11:58;;;;;;;2.77;2.50;;;21.30;57.70;;;;;;5097187;28;20442;-85
2024/03/06 01:14:25;;;;;;;2.50;2.13;;;21.30;57.80;;;;;;5096963;28;20509;-85
2024/03/06 01:16:53;;;;;;;2.27;1.97;;;21.30;57.70;;;;;;5097127;28;20444;-83
2024/03/06 01:19:19;;;;;;;4.90;2.50;;;21.30;57.70;;;;;;5097029;28;20435;-84
2024/03/06 01:21:46;;;;;;;2.47;2.27;;;21.30;57.70;;;;;;5096987;28;20462;-84
2024/03/06 01:24:13;;;;;;;2.33;2.00;;;21.30;57.70;;;;;;5096603;28;20483;-85
2024/03/06 01:26:40;;;;;;;3.03;2.30;;;21.30;57.80;;;;;;5096864;28;20806;-85
2024/03/06 01:29:07;;;;;;;2.33;1.93;;;21.30;57.80;;;;;;5097007;28;20497;-84
2024/03/06 01:31:33;;;;;;;2.17;1.87;;;21.30;57.80;;;;;;5096976;28;20446;-84
2024/03/06 01:34:01;;;;;;;3.30;2.57;;;21.30;57.70;;;;;;5096651;28;20439;-88
2024/03/06 01:36:28;;;;;;;2.73;2.10;;;21.30;57.70;;;;;;5096778;28;20232;-84
2024/03/06 01:38:54;;;;;;;3.00;2.20;;;21.30;57.70;;;;;;5096725;28;20439;-83
2024/03/06 01:41:21;;;;;;;2.93;2.40;;;21.30;57.70;;;;;;5096813;28;20941;-89
2024/03/06 01:43:48;;;;;;;3.03;2.30;;;21.40;57.70;;;;;;5096828;28;20487;-85
2024/03/06 01:46:15;;;;;;;3.00;2.53;;;21.50;57.70;;;;;;5096790;28;20450;-84
2024/03/06 01:48:42;;;;;;;2.77;2.17;;;21.40;57.60;;;;;;5096575;28;20431;-84
2024/03/06 01:51:11;;;;;;;3.07;2.50;;;21.40;57.60;;;;;;5096873;28;20463;-84
2024/03/06 01:53:38;;;;;;;2.30;2.07;;;21.40;57.50;;;;;;5096414;28;20436;-86
2024/03/06 01:56:05;;;;;;;3.40;2.70;;;21.40;57.50;;;;;;5096851;28;20853;-87
2024/03/06 01:58:33;;;;;;;2.50;2.30;;;21.50;57.50;;;;;;5096652;28;20431;-83
2024/03/06 02:01:00;;;;;;;3.13;2.03;;;21.50;57.50;;;;;;5095292;28;20489;-84
2024/03/06 02:03:27;;;;;;;3.27;2.57;;;21.50;57.50;;;;;;5095816;28;20432;-83
2024/03/06 02:05:54;;;;;;;2.60;2.30;;;21.50;57.50;;;;;;5111807;28;20835;-83
2024/03/06 02:08:23;;;;;;;2.30;2.10;;;21.50;57.50;;;;;;5112164;28;20436;-84
2024/03/06 02:10:50;;;;;;;2.87;2.57;;;21.60;57.60;;;;;;5109948;28;20432;-83
2024/03/06 02:13:18;;;;;;;3.70;2.50;;;21.50;57.50;;;;;;5105916;28;20459;-84
2024/03/06 02:15:46;;;;;;;3.20;2.57;;;21.40;57.50;;;;;;5096592;28;20463;-83
2024/03/06 02:18:12;;;;;;;2.20;1.90;;;21.50;57.50;;;;;;5096447;28;20431;-85
2024/03/06 02:20:41;;;;;;;2.57;1.90;;;21.50;58.10;;;;;;5096217;28;20431;-84
2024/03/06 02:23:08;;;;;;;2.33;2.13;;;21.50;57.50;;;;;;5095787;28;20451;-84
2024/03/06 02:25:34;;;;;;;2.57;2.37;;;21.50;57.50;;;;;;5095583;28;20486;-84
2024/03/06 02:28:01;;;;;;;2.10;1.80;;;21.50;57.50;;;;;;5095861;28;20945;-84
2024/03/06 02:30:30;;;;;;;2.50;2.30;;;21.50;57.50;;;;;;5095810;28;20439;-83
2024/03/06 02:32:57;;;;;;;2.30;2.03;;;21.40;57.40;;;;;;5095809;28;20527;-83
2024/03/06 02:35:24;;;;;;;3.23;2.47;;;21.50;57.50;;;;;;5095653;28;20952;-84
2024/03/06 02:37:52;;;;;;;2.10;1.80;;;21.50;57.50;;;;;;5096113;28;20440;-83
2024/03/06 02:40:19;;;;;;;2.70;2.17;;;21.50;57.50;;;;;;5095964;28;20427;-84
2024/03/06 02:42:46;;;;;;;2.77;2.10;;;21.50;57.50;;;;;;5095370;28;20435;-84
2024/03/06 02:45:11;;;;;;;2.77;2.30;;;21.50;57.50;;;;;;5109822;28;20467;-84
2024/03/06 02:47:38;;;;;;;2.97;2.23;;;21.50;57.40;;;;;;5118416;28;20446;-84
2024/03/06 02:50:07;;;;;;;2.50;2.07;;;21.50;57.40;;;;;;5104747;28;20550;-83
2024/03/06 02:52:34;;;;;;;3.57;2.63;;;21.50;57.40;;;;;;5095303;28;20460;-84
2024/03/06 02:55:02;;;;;;;2.37;2.17;;;21.60;57.50;;;;;;5095142;28;20446;-83
2024/03/06 02:57:29;;;;;;;2.80;1.97;;;21.50;57.40;;;;;;5095238;28;20485;-83
2024/03/06 02:59:57;;;;;;;2.60;2.13;;;21.50;57.40;;;;;;5095572;28;20431;-84
2024/03/06 03:02:24;;;;;;;3.17;2.60;;;21.50;57.30;;;;;;5087291;28;20436;-84
2024/03/06 03:04:51;;;;;;;2.50;2.30;;;21.60;57.40;;;;;;5094830;28;20479;-84
2024/03/06 03:07:19;;;;;;;2.80;2.30;;;21.60;57.30;;;;;;5095036;28;20435;-85
2024/03/06 03:09:46;;;;;;;2.50;2.17;;;21.60;57.30;;;;;;5094851;28;20440;-84
2024/03/06 03:12:15;;;;;;;2.90;2.57;;;21.50;57.30;;;;;;5095036;28;20443;-85
2024/03/06 03:14:43;;;;;;;2.27;2.07;;;21.60;57.30;;;;;;5095040;28;20535;-84
2024/03/06 03:17:10;;;;;;;2.83;2.13;;;21.50;57.20;;;;;;5094957;28;20479;-84
2024/03/06 03:19:39;;;;;;;2.73;2.20;;;21.50;57.30;;;;;;5094958;28;20511;-85
2024/03/06 03:22:07;;;;;;;2.80;2.50;;;21.50;57.30;;;;;;5094703;28;20954;-84
2024/03/06 03:24:34;;;;;;;2.77;2.00;;;21.50;57.40;;;;;;5094525;28;20578;-89
2024/03/06 03:27:01;;;;;;;2.80;1.90;;;21.50;57.30;;;;;;5094692;28;20428;-85
2024/03/06 03:29:29;;;;;;;2.73;2.10;;;21.50;57.40;;;;;;5094575;28;20471;-84
2024/03/06 03:31:56;;;;;;;2.27;1.83;;;21.50;57.30;;;;;;5094441;28;20435;-83
2024/03/06 03:34:24;;;;;;;2.27;2.07;;;21.40;57.30;;;;;;5094493;28;20436;-83
2024/03/06 03:36:50;;;;;;;2.77;2.43;;;21.50;57.40;;;;;;5094531;28;20436;-83
2024/03/06 03:39:17;;;;;;;3.10;2.57;;;21.50;57.30;;;;;;5094189;28;20432;-83
2024/03/06 03:41:45;;;;;;;2.43;2.03;;;21.50;57.30;;;;;;5094565;28;20451;-83
2024/03/06 03:44:12;;;;;;;2.33;1.87;;;21.50;57.30;;;;;;5093924;28;20534;-84
2024/03/06 03:46:40;;;;;;;2.40;2.13;;;21.50;57.30;;;;;;5095081;28;20523;-84
2024/03/06 03:49:08;;;;;;;2.03;1.83;;;21.60;57.20;;;;;;5094327;28;20513;-84
2024/03/06 03:51:35;;;;;;;2.83;2.10;;;21.50;57.00;;;;;;5094292;28;20467;-84
2024/03/06 03:54:02;;;;;;;3.80;2.77;;;21.50;57.00;;;;;;5093993;28;20446;-84
2024/03/06 03:56:29;;;;;;;2.80;2.40;;;21.60;57.10;;;;;;5094305;28;20462;-85
2024/03/06 03:58:57;;;;;;;3.13;2.17;;;21.50;57.10;;;;;;5094163;28;20431;-84
2024/03/06 04:01:24;;;;;;;2.23;2.03;;;21.50;57.10;;;;;;5094027;28;20590;-85
2024/03/06 04:03:52;;;;;;;2.97;2.20;;;21.50;57.10;;;;;;5093928;28;20914;-85
2024/03/06 04:06:19;;;;;;;2.87;2.10;;;21.60;57.10;;;;;;5093865;28;20483;-86
2024/03/06 04:08:46;;;;;;;2.10;1.90;;;21.60;57.10;;;;;;5094106;28;20910;-86
2024/03/06 04:11:13;;;;;;;2.20;1.93;;;21.50;57.00;;;;;;5093767;28;20832;-85
2024/03/06 04:13:40;;;;;;;2.43;2.03;;;21.60;57.10;;;;;;5094156;28;20491;-85
2024/03/06 04:16:07;;;;;;;2.43;2.10;;;21.60;57.10;;;;;;5093840;28;20956;-85
2024/03/06 04:18:34;;;;;;;2.40;2.20;;;21.60;57.10;;;;;;5093798;28;20797;-85
2024/03/06 04:21:05;;;;;;;2.40;1.80;;;21.50;57.00;;;;;;5093808;28;20797;-84
2024/03/06 04:23:31;;;;;;;2.40;2.20;;;21.50;57.00;;;;;;5093521;28;20497;-84
2024/03/06 04:25:58;;;;;;;2.57;2.00;;;21.50;57.00;;;;;;5093210;28;20502;-85
2024/03/06 04:28:25;;;;;;;2.83;2.33;;;21.50;57.00;;;;;;5093946;28;20436;-90
2024/03/06 04:30:52;;;;;;;2.30;2.10;;;21.60;57.10;;;;;;5093347;28;20436;-84
2024/03/06 04:33:19;;;;;;;2.23;1.90;;;21.50;57.00;;;;;;5093176;28;20863;-85
2024/03/06 04:35:45;;;;;;;2.23;1.80;;;21.50;57.00;;;;;;5092727;28;20446;-85
2024/03/06 04:38:13;;;;;;;2.50;2.10;;;21.50;57.00;;;;;;5092009;28;20446;-84
2024/03/06 04:40:40;;;;;;;2.30;2.10;;;21.50;57.00;;;;;;5092134;28;20919;-85
2024/03/06 04:43:07;;;;;;;2.83;2.47;;;21.60;57.00;;;;;;5092885;28;20530;-85
2024/03/06 04:45:34;;;;;;;2.43;1.90;;;21.60;57.00;;;;;;5092727;28;20577;-85
2024/03/06 04:48:01;;;;;;;2.50;2.10;;;21.60;56.90;;;;;;5092515;28;20443;-85
2024/03/06 04:50:28;;;;;;;3.03;2.70;;;21.60;56.90;;;;;;5092520;28;20434;-84
2024/03/06 04:52:56;;;;;;;2.20;1.93;;;21.60;56.90;;;;;;5093354;28;20818;-85
2024/03/06 04:55:25;;;;;;;2.47;2.20;;;21.60;56.80;;;;;;5092965;28;21026;-84
2024/03/06 04:57:52;;;;;;;3.10;2.10;;;21.60;56.80;;;;;;5092911;28;20512;-84
2024/03/06 05:00:19;;;;;;;2.80;2.30;;;21.70;56.90;;;;;;5093002;28;20485;-84
2024/03/06 05:02:46;;;;;;;2.83;2.23;;;21.70;56.80;;;;;;5093310;28;20431;-84
2024/03/06 05:05:13;;;;;;;3.90;2.37;;;21.70;56.80;;;;;;5093193;28;20482;-84
2024/03/06 05:07:39;;;;;;;2.40;2.10;;;21.70;56.70;;;;;;5093009;28;20435;-84
2024/03/06 05:10:08;;;;;;;3.17;2.47;;;21.70;56.70;;;;;;5093176;28;20439;-85
2024/03/06 05:12:37;;;;;;;2.30;1.90;;;21.70;56.70;;;;;;5092872;28;20522;-84
2024/03/06 05:15:04;;;;;;;2.60;2.40;;;21.70;56.70;;;;;;5093118;28;20447;-88
2024/03/06 05:17:31;;;;;;;2.20;1.87;;;21.70;56.60;;;;;;5092922;28;20439;-87
2024/03/06 05:19:57;;;;;;;2.47;2.10;;;21.70;56.60;;;;;;5092913;28;20451;-84
2024/03/06 05:22:24;;;;;;;2.37;1.90;;;21.80;56.70;;;;;;5093230;28;20869;-84
2024/03/06 05:24:51;;;;;;;2.67;2.47;;;21.80;56.70;;;;;;5093705;28;20471;-84
2024/03/06 05:27:18;;;;;;;2.20;1.80;;;21.70;56.60;;;;;;5093371;28;20518;-85
2024/03/06 05:29:46;;;;;;;2.30;1.83;;;21.70;56.60;;;;;;5092891;28;20446;-84
2024/03/06 05:32:13;;;;;;;3.03;2.30;;;21.80;56.70;;;;;;5092721;28;20471;-84
2024/03/06 05:34:39;;;;;;;2.43;2.07;;;21.80;56.70;;;;;;5092855;28;20446;-87
2024/03/06 05:37:06;;;;;;;2.63;2.10;;;21.80;56.60;;;;;;5094753;28;20435;-84
2024/03/06 05:39:33;;;;;;;3.10;2.20;;;21.80;56.60;;;;;;5096727;28;20481;-84
2024/03/06 05:42:04;;;;;;;3.27;2.57;;;21.80;56.60;;;;;;5096851;28;20442;-84
2024/03/06 05:44:31;;;;;;;2.43;1.80;;;21.80;56.60;;;;;;5104292;28;20459;-82
2024/03/06 05:47:00;;;;;;;2.20;1.93;;;21.80;56.60;;;;;;5118969;28;20476;-85
2024/03/06 05:49:28;;;;;;;2.57;2.37;;;21.80;56.50;;;;;;5115391;28;20443;-88
2024/03/06 05:51:54;;;;;;;2.17;1.97;;;21.80;56.50;;;;;;5096424;28;20455;-84
2024/03/06 05:54:22;;;;;;;2.53;1.97;;;21.90;56.60;;;;;;5096239;28;20462;-84
2024/03/06 05:56:49;;;;;;;3.07;2.57;;;21.80;56.50;;;;;;5096632;28;20439;-85
2024/03/06 05:59:16;;;;;;;3.63;2.33;;;21.80;57.10;;;;;;5096228;28;20438;-84
2024/03/06 06:01:44;;;;;;;2.77;1.90;;;21.80;56.50;;;;;;5096050;28;20435;-84
2024/03/06 06:04:13;;;;;;;2.50;2.30;;;21.80;56.40;;;;;;5096310;28;20436;-84
2024/03/06 06:06:40;;;;;;;2.17;1.90;;;21.90;56.40;;;;;;5096331;28;20486;-84
2024/03/06 06:09:12;;;;;;;2.23;1.80;;;21.90;57.10;;;;;;5096044;28;20450;-83
2024/03/06 06:11:39;;;;;;;2.73;2.30;;;21.80;56.40;;;;;;5096999;28;20522;-84
2024/03/06 06:14:06;;;;;;;2.97;2.10;;;21.80;56.40;;;;;;5096129;28;20436;-87
2024/03/06 06:16:37;;;;;;;2.53;1.77;;;21.90;56.50;;;;;;5096357;28;20434;-90
2024/03/06 06:19:05;;;;;;;2.30;1.77;;;22.00;56.50;;;;;;5095979;28;20431;-88
2024/03/06 06:21:35;;;;;;;3.87;2.27;;;21.90;56.50;;;;;;5095783;28;20838;-84
2024/03/06 06:24:03;;;;;;;2.97;1.97;;;21.80;56.60;;;;;;5095733;28;21015;-85
2024/03/06 06:26:30;;;;;;;4.00;2.07;;;21.80;56.60;;;;;;5095566;28;20475;-84
2024/03/06 06:28:57;;;;;;;3.10;2.10;;;21.80;56.60;;;;;;5095888;28;20436;-84
2024/03/06 06:31:25;;;;;;;4.30;2.87;;;21.80;56.60;;;;;;5096285;28;20438;-83
2024/03/06 06:33:52;;;;;;;4.20;3.47;;;21.90;56.60;;;;;;5095963;28;20441;-89
2024/03/06 06:36:19;;;;;;;4.33;2.37;;;21.90;56.80;;;;;;5095705;28;20440;-88
2024/03/06 06:38:47;;;;;;;9.43;2.50;;;21.90;56.90;;;;;;5095764;28;20432;-85
2024/03/06 06:41:15;;;;;;;3.57;2.27;;;21.90;56.80;;;;;;5095740;28;20522;-88
2024/03/06 06:43:42;;;;;;;5.10;2.50;;;21.80;56.70;;;;;;5094977;28;21001;-86
2024/03/06 06:46:08;;;;;;;2.37;2.17;;;21.80;56.70;;;;;;5095426;28;20475;-85
2024/03/06 06:48:35;;;;;;;5.10;2.40;;;21.80;56.80;;;;;;5095006;28;20432;-84
2024/03/06 06:51:03;;;;;;;4.37;2.47;;;21.80;56.80;;;;;;5095195;28;20452;-86
2024/03/06 06:53:30;;;;;;;2.20;1.90;;;21.80;57.40;;;;;;5095536;28;20489;-84
2024/03/06 06:55:58;;;;;;;3.70;2.50;;;21.80;56.90;;;;;;5095285;28;20522;-85
2024/03/06 06:58:26;;;;;;;3.20;2.60;;;21.80;56.90;;;;;;5095475;28;20435;-87
2024/03/06 07:00:53;;;;;;;6.50;2.60;;;21.80;56.90;;;;;;5095019;28;20490;-86
2024/03/06 07:03:21;;;;;;;4.00;2.47;;;21.80;57.00;;;;;;5095390;28;20865;-86
2024/03/06 07:05:48;;;;;;;3.00;2.30;;;21.80;57.10;;;;;;5096250;28;20487;-87
2024/03/06 07:08:15;;;;;;;5.20;2.30;;;21.80;57.30;;;;;;5109064;28;20499;-85
2024/03/06 07:10:41;;;;;;;3.43;2.40;;;21.80;57.30;;;;;;5108763;28;20420;-84
2024/03/06 07:13:09;;;;;;;5.53;2.80;;;21.80;57.40;;;;;;5108398;28;20487;-82
2024/03/06 07:15:37;;;;;;;4.23;2.40;;;21.90;57.50;;;;;;5097701;28;20439;-88
2024/03/06 07:18:04;;;;;;;4.00;2.43;;;21.70;57.30;;;;;;5101713;28;20436;-93
2024/03/06 07:20:31;;;;;;;6.43;2.40;;;21.80;57.50;;;;;;5096491;28;20436;-89
2024/03/06 07:22:58;;;;;;;8.27;3.57;;;21.80;57.50;;;;;;5093960;28;20443;-93
2024/03/06 07:25:25;;;;;;;4.47;3.17;;;21.80;57.30;;;;;;5072793;28;20466;-80
2024/03/06 07:27:52;;;;;;;12.30;6.77;;;21.90;57.30;;;;;;5073618;28;20771;-80
2024/03/06 07:30:20;;;;;;;4.97;3.90;;;21.90;56.10;;;;;;5074083;28;20440;-80
2024/03/06 07:32:47;;;;;;;7.17;3.57;;;21.80;56.80;;;;;;5074368;28;20432;-81
2024/03/06 07:35:14;;;;;;;7.07;3.43;;;21.90;57.30;;;;;;5073966;28;20443;-88
2024/03/06 07:37:44;;;;;;;5.60;3.20;;;21.90;57.10;;;;;;5073013;28;20455;-81
2024/03/06 07:40:12;;;;;;;5.27;2.90;;;21.90;57.10;;;;;;5074124;28;20452;-84
2024/03/06 07:42:38;;;;;;;7.10;3.60;;;21.90;56.90;;;;;;5072622;28;20450;-84
2024/03/06 07:45:07;;;;;;;4.97;3.27;;;21.90;57.60;;;;;;5072861;28;20483;-83
2024/03/06 07:47:37;;;;;;;5.90;3.13;;;21.90;57.00;;;;;;5068873;28;20484;-88
2024/03/06 07:50:05;;;;;;;4.70;3.20;;;21.90;57.20;;;;;;5070346;28;20464;-87
2024/03/06 07:52:32;;;;;;;7.20;3.40;;;21.90;57.50;;;;;;5069286;28;20472;-87
2024/03/06 07:54:59;;;;;;;13.07;3.47;;;21.90;57.90;;;;;;5070631;28;20864;-88
2024/03/06 07:57:26;;;;;;;10.00;3.83;;;21.90;58.50;;;;;;5072802;28;20455;-87
2024/03/06 07:59:54;;;;;;;13.03;6.07;;;22.00;59.40;;;;;;5071133;28;20456;-83
2024/03/06 08:02:21;;;;;;;10.03;5.60;;;22.00;59.20;;;;;;5072116;28;20523;-85
2024/03/06 08:04:49;;;;;;;8.83;6.30;;;22.10;59.20;;;;;;5071828;28;20443;-84
2024/03/06 08:07:16;;;;;;;9.23;6.00;;;22.00;59.70;;;;;;5071256;28;20559;-87
2024/03/06 08:09:43;;;;;;;11.77;7.87;;;22.10;59.00;;;;;;5071353;28;20455;-86
2024/03/06 08:12:10;;;;;;;6.97;6.20;;;22.00;58.90;;;;;;5071449;28;20441;-87
2024/03/06 08:14:36;;;;;;;9.47;6.67;;;22.10;58.70;;;;;;5072129;28;20448;-88
2024/03/06 08:17:03;;;;;;;8.00;5.20;;;22.20;58.60;;;;;;5073364;28;20436;-87
2024/03/06 08:19:30;;;;;;;13.10;5.43;;;22.10;58.70;;;;;;5073387;28;20436;-86
2024/03/06 08:21:58;;;;;;;13.10;5.20;;;22.10;58.70;;;;;;5073914;28;20494;-89
2024/03/06 08:24:25;;;;;;;10.60;4.63;;;22.10;58.70;;;;;;5073230;28;20928;-85
2024/03/06 08:26:52;;;;;;;8.70;4.53;;;22.20;58.80;;;;;;5073030;28;20498;-89
2024/03/06 08:29:19;;;;;;;10.00;4.70;;;22.20;58.70;;;;;;5073098;28;20444;-85
2024/03/06 08:31:46;;;;;;;7.17;4.03;;;22.20;58.70;;;;;;5073797;28;20450;-84
2024/03/06 08:34:12;;;;;;;7.43;4.33;;;22.20;58.70;;;;;;5074105;28;20455;-92
2024/03/06 08:36:39;;;;;;;6.43;4.10;;;22.20;58.70;;;;;;5074092;28;20440;-87
2024/03/06 08:39:12;;;;;;;13.80;4.17;;;22.30;58.70;;;;;;5073696;28;20460;-84
2024/03/06 08:41:39;;;;;;;8.57;3.63;;;22.30;58.70;;;;;;5073669;28;20440;-89
2024/03/06 08:44:06;;;;;;;5.87;3.60;;;22.30;58.60;;;;;;5073627;28;20482;-88
2024/03/06 08:46:33;;;;;;;9.67;3.40;;;22.40;58.70;;;;;;5082356;28;20468;-84
2024/03/06 08:49:01;;;;;;;11.60;3.33;;;22.40;58.70;;;;;;5095494;28;20428;-84
2024/03/06 08:51:28;;;;;;;9.30;3.30;;;22.50;59.30;;;;;;5089618;28;20556;-84
2024/03/06 08:53:55;;;;;;;8.90;3.43;;;22.50;58.70;;;;;;5073585;28;20609;-83
2024/03/06 08:56:23;;;;;;;8.83;4.20;;;22.60;58.70;;;;;;5073210;28;20432;-84
2024/03/06 08:58:49;;;;;;;5.70;3.17;;;22.60;58.70;;;;;;5073397;28;20429;-86
2024/03/06 09:01:16;;;;;;;5.47;3.30;;;22.60;58.70;;;;;;5073113;28;20436;-85
2024/03/06 09:03:43;;;;;;;8.83;3.47;;;22.70;58.70;;;;;;5073261;28;20443;-86
2024/03/06 09:06:10;;;;;;;5.13;3.63;;;22.70;58.70;;;;;;5073538;28;20476;-85
2024/03/06 09:08:37;;;;;;;5.30;3.00;;;22.80;58.70;;;;;;5073759;28;20448;-85
2024/03/06 09:11:04;;;;;;;5.87;3.23;;;22.80;58.70;;;;;;5075994;28;20454;-85
2024/03/06 09:13:32;;;;;;;7.73;3.60;;;22.90;58.70;;;;;;5076884;28;20448;-85
2024/03/06 09:15:59;;;;;;;8.90;3.10;;;22.90;58.70;;;;;;5076398;28;20928;-86
2024/03/06 09:18:26;;;;;;;13.10;4.10;;;23.00;58.70;;;;;;5077200;28;20441;-85
2024/03/06 09:20:53;;;;;;;10.17;3.30;;;23.00;58.70;;;;;;5076758;28;20467;-85
2024/03/06 09:23:20;;;;;;;11.23;3.50;;;23.00;58.60;;;;;;5076873;28;20436;-85
2024/03/06 09:25:48;;;;;;;4.60;2.87;;;23.10;58.70;;;;;;5076506;28;20535;-85
2024/03/06 09:28:15;;;;;;;8.93;3.60;;;23.10;58.70;;;;;;5077050;28;20444;-85
2024/03/06 09:30:43;;;;;;;5.90;3.47;;;23.20;58.70;;;;;;5076862;28;20436;-85
2024/03/06 09:33:10;;;;;;;5.17;3.63;;;23.20;58.60;;;;;;5076532;28;20931;-85
2024/03/06 09:35:36;;;;;;;5.67;3.90;;;23.30;58.70;;;;;;5076818;28;20935;-85
2024/03/06 09:38:03;;;;;;;4.70;2.43;;;23.30;58.70;;;;;;5076925;28;20930;-85
2024/03/06 09:40:31;;;;;;;4.03;2.47;;;23.30;58.60;;;;;;5076747;28;20436;-85
2024/03/06 09:42:58;;;;;;;3.60;3.00;;;23.30;58.60;;;;;;5076394;28;20451;-85
2024/03/06 09:45:25;;;;;;;4.57;2.93;;;23.30;58.60;;;;;;5076894;28;20486;-85
2024/03/06 09:47:53;;;;;;;4.70;3.00;;;23.30;58.70;;;;;;5076343;28;20480;-85
2024/03/06 09:50:25;;;;;;;4.63;2.80;;;23.40;58.70;;;;;;5076630;28;20467;-86
2024/03/06 09:52:53;;;;;;;3.67;2.90;;;23.40;58.70;;;;;;5077006;28;20447;-85
2024/03/06 09:55:21;;;;;;;4.33;3.43;;;23.50;58.70;;;;;;5076744;28;20429;-86
2024/03/06 09:57:48;;;;;;;9.97;2.97;;;23.50;58.50;;;;;;5076557;28;20440;-85
2024/03/06 10:00:15;;;;;;;5.27;2.87;;;23.50;58.50;;;;;;5076177;28;20494;-83
2024/03/06 10:02:51;;;;;;;6.33;3.07;;;23.50;58.50;;;;;;5076044;28;20560;-86
2024/03/06 10:05:25;;;;;;;3.73;2.47;;;23.40;58.40;;;;;;5076337;28;20424;-84
2024/03/06 10:07:53;;;;;;;4.07;3.23;;;23.40;58.50;;;;;;5075575;28;20483;-84
2024/03/06 10:10:22;;;;;;;5.47;3.30;;;23.40;58.50;;;;;;5080064;28;20447;-84
2024/03/06 10:12:49;;;;;;;3.80;2.30;;;23.30;58.50;;;;;;5096102;28;20444;-84
2024/03/06 10:15:16;;;;;;;3.13;2.53;;;23.30;58.50;;;;;;5096181;28;20444;-84
2024/03/06 10:17:45;;;;;;;3.97;2.73;;;23.30;58.50;;;;;;5096398;28;20446;-85
2024/03/06 10:20:23;;;;;;;4.23;2.83;;;23.30;58.60;;;;;;5096345;28;20478;-85
2024/03/06 10:22:54;;;;;;;4.20;2.43;;;23.30;58.60;;;;;;5097000;28;20434;-85
2024/03/06 10:25:22;;;;;;;3.40;2.60;;;23.20;58.60;;;;;;5096246;28;20432;-84
2024/03/06 10:28:04;;;;;;;5.20;2.60;;;23.20;58.60;;;;;;5096069;28;21013;-85
2024/03/06 10:30:31;;;;;;;5.00;2.80;;;23.20;58.60;;;;;;5096243;28;20438;-85
2024/03/06 10:32:58;;;;;;;5.73;3.00;;;23.20;58.60;;;;;;5096019;28;20489;-85
2024/03/06 10:35:25;;;;;;;3.40;2.70;;;23.20;58.60;;;;;;5095690;28;20440;-85
2024/03/06 10:37:56;;;;;;;4.63;3.03;;;23.20;58.70;;;;;;5095782;28;20439;-85
2024/03/06 10:40:24;;;;;;;3.30;2.70;;;23.20;58.70;;;;;;5095955;28;20432;-85
2024/03/06 10:42:52;;;;;;;2.87;2.47;;;23.20;58.70;;;;;;5095842;28;20465;-86
2024/03/06 10:45:22;;;;;;;3.00;2.60;;;23.20;58.70;;;;;;5095533;28;20479;-85
2024/03/06 10:47:50;;;;;;;3.30;2.43;;;23.20;58.70;;;;;;5095501;28;20483;-85
2024/03/06 10:50:17;;;;;;;4.30;3.07;;;23.20;58.70;;;;;;5095895;28;20459;-85
2024/03/06 10:52:48;;;;;;;3.20;2.73;;;23.20;58.70;;;;;;5095734;28;20439;-85
2024/03/06 10:55:17;;;;;;;4.37;2.50;;;23.20;58.70;;;;;;5095603;28;20769;-85
2024/03/06 10:57:46;;;;;;;3.70;2.67;;;23.30;58.70;;;;;;5095708;28;20466;-85
2024/03/06 11:00:18;;;;;;;4.37;2.60;;;23.30;58.70;;;;;;5095489;28;20493;-85
2024/03/06 11:02:49;;;;;;;3.30;2.10;;;23.30;58.70;;;;;;5095874;28;20526;-85
2024/03/06 11:05:16;;;;;;;4.10;2.50;;;23.30;58.70;;;;;;5095361;28;20447;-85
2024/03/06 11:07:43;;;;;;;3.73;2.60;;;23.30;58.70;;;;;;5095119;28;20479;-85
2024/03/06 11:10:16;;;;;;;2.50;2.27;;;23.30;58.70;;;;;;5094952;28;20431;-85
2024/03/06 11:12:45;;;;;;;2.97;2.30;;;23.30;58.70;;;;;;5095410;28;20881;-85
2024/03/06 11:15:16;;;;;;;3.10;2.50;;;23.30;58.60;;;;;;5095119;28;20439;-85
2024/03/06 11:17:43;;;;;;;3.27;2.50;;;23.20;58.60;;;;;;5095260;28;20463;-85
2024/03/06 11:20:16;;;;;;;3.43;2.40;;;23.20;58.60;;;;;;5094863;28;20424;-86
2024/03/06 11:23:12;;;;;;;4.00;2.40;;;23.30;58.60;;;;;;5084755;28;20470;-82
2024/03/06 11:26:03;;;;;;;4.27;2.60;;;23.30;58.40;;;;;;5073463;28;20441;-83
2024/03/06 11:28:33;;;;;;;3.50;2.40;;;23.70;57.30;;;;;;5073851;28;20491;-83
2024/03/06 11:31:02;;;;;;;5.70;2.60;;;23.80;56.80;;;;;;5074335;28;20444;-83
2024/03/06 11:33:38;;;;;;;5.20;2.80;;;24.00;56.50;;;;;;5073272;28;20441;-83
2024/03/06 11:36:18;;;;;;;3.00;2.40;;;24.10;56.40;;;;;;5073652;28;20455;-82
2024/03/06 11:38:48;;;;;;;3.33;2.50;;;24.30;56.30;;;;;;5074260;28;20923;-81
2024/03/06 11:41:15;;;;;;;4.73;2.50;;;24.30;56.00;;;;;;5074149;28;20437;-82
2024/03/06 11:43:46;;;;;;;4.80;2.77;;;24.30;56.10;;;;;;5072552;28;20472;-82
2024/03/06 11:46:13;;;;;;;2.23;2.03;;;24.30;56.10;;;;;;5073027;28;20436;-82
2024/03/06 11:48:40;;;;;;;6.10;2.80;;;24.30;56.00;;;;;;5073410;28;20491;-81
2024/03/06 11:51:07;;;;;;;8.10;2.77;;;24.20;56.10;;;;;;5073500;28;20472;-82
2024/03/06 11:53:36;;;;;;;3.23;1.93;;;24.20;56.00;;;;;;5074183;28;20445;-83
2024/03/06 11:56:07;;;;;;;6.53;2.60;;;24.20;56.20;;;;;;5073083;28;20447;-81
2024/03/06 11:58:34;;;;;;;5.57;2.90;;;24.20;56.00;;;;;;5073543;28;20440;-82
2024/03/06 12:01:04;;;;;;;5.87;2.30;;;24.20;56.00;;;;;;5073681;28;20932;-82
2024/03/06 12:03:32;;;;;;;5.73;2.40;;;24.20;56.20;;;;;;5074133;28;20429;-83
2024/03/06 12:05:59;;;;;;;4.30;2.23;;;24.20;56.00;;;;;;5073750;28;20429;-81
2024/03/06 12:08:26;;;;;;;4.07;2.63;;;24.10;56.30;;;;;;5073527;28;20886;-83
2024/03/06 12:10:55;;;;;;;5.20;2.27;;;24.10;56.10;;;;;;5075494;28;20443;-81
2024/03/06 12:13:22;;;;;;;3.80;2.00;;;24.20;56.00;;;;;;5075335;28;20448;-81
2024/03/06 12:15:49;;;;;;;4.93;2.93;;;24.20;55.90;;;;;;5076528;28;20474;-82
2024/03/06 12:18:19;;;;;;;3.20;2.37;;;24.20;55.80;;;;;;5073435;28;20447;-81
2024/03/06 12:20:46;;;;;;;3.67;1.93;;;24.30;55.80;;;;;;5073455;28;20464;-80
2024/03/06 12:23:22;;;;;;;5.37;3.03;;;24.20;55.90;;;;;;5073376;28;20447;-82
2024/03/06 12:25:49;;;;;;;3.60;2.47;;;24.30;55.90;;;;;;5073550;28;20523;-82
2024/03/06 12:28:17;;;;;;;2.33;2.07;;;24.20;56.60;;;;;;5073637;28;20492;-83
2024/03/06 12:30:45;;;;;;;3.37;2.83;;;24.10;56.20;;;;;;5073306;28;20444;-81
2024/03/06 12:33:14;;;;;;;3.23;2.17;;;24.10;56.10;;;;;;5073364;28;20451;-81
2024/03/06 12:35:42;;;;;;;4.37;2.33;;;24.00;56.30;;;;;;5073413;28;20977;-81
2024/03/06 12:38:15;;;;;;;4.40;2.27;;;24.00;56.10;;;;;;5073500;28;20461;-82
2024/03/06 12:40:43;;;;;;;2.53;2.33;;;24.10;56.20;;;;;;5073268;28;20435;-81
2024/03/06 12:43:10;;;;;;;3.30;2.10;;;24.10;55.90;;;;;;5073266;28;20468;-82
2024/03/06 12:45:37;;;;;;;3.40;1.90;;;24.10;55.90;;;;;;5053134;28;20434;-81
2024/03/06 12:48:05;;;;;;;3.80;1.93;;;24.10;55.80;;;;;;5052857;28;20481;-81